sensor_id;sensor_type;location;lat;lon;timestamp;P1;durP1;ratioP1;P2;durP2;ratioP2
53775;SDS011;44276;49.534;6.378;2022-11-13T00:02:35;21.02;;;10.95;;
53775;SDS011;44276;49.534;6.378;2022-11-13T00:05:04;17.90;;;9.80;;
53775;SDS011;44276;49.534;6.378;2022-11-13T00:07:33;22.02;;;11.63;;
53775;SDS011;44276;49.534;6.378;2022-11-13T00:10:01;20.02;;;9.35;;
53775;SDS011;44276;49.534;6.378;2022-11-13T00:12:30;24.00;;;12.32;;
53775;SDS011;44276;49.534;6.378;2022-11-13T00:14:58;33.90;;;12.25;;
53775;SDS011;44276;49.534;6.378;2022-11-13T00:17:26;17.40;;;8.98;;
53775;SDS011;44276;49.534;6.378;2022-11-13T00:19:56;20.10;;;9.93;;
53775;SDS011;44276;49.534;6.378;2022-11-13T00:22:24;17.65;;;9.82;;
53775;SDS011;44276;49.534;6.378;2022-11-13T00:24:53;20.92;;;8.90;;
53775;SDS011;44276;49.534;6.378;2022-11-13T00:27:21;17.48;;;9.05;;
53775;SDS011;44276;49.534;6.378;2022-11-13T00:29:49;19.80;;;9.07;;
53775;SDS011;44276;49.534;6.378;2022-11-13T00:32:17;25.27;;;9.68;;
53775;SDS011;44276;49.534;6.378;2022-11-13T00:34:45;17.52;;;8.32;;
53775;SDS011;44276;49.534;6.378;2022-11-13T00:37:15;17.95;;;9.27;;
53775;SDS011;44276;49.534;6.378;2022-11-13T00:39:44;16.25;;;9.00;;
53775;SDS011;44276;49.534;6.378;2022-11-13T00:42:12;21.38;;;9.40;;
53775;SDS011;44276;49.534;6.378;2022-11-13T00:44:40;23.70;;;9.73;;
53775;SDS011;44276;49.534;6.378;2022-11-13T00:47:08;16.27;;;7.05;;
53775;SDS011;44276;49.534;6.378;2022-11-13T00:49:36;22.35;;;9.07;;
53775;SDS011;44276;49.534;6.378;2022-11-13T00:52:05;18.15;;;9.43;;
53775;SDS011;44276;49.534;6.378;2022-11-13T00:54:34;16.48;;;8.88;;
53775;SDS011;44276;49.534;6.378;2022-11-13T00:57:02;18.83;;;8.27;;
53775;SDS011;44276;49.534;6.378;2022-11-13T00:59:33;21.17;;;9.93;;
53775;SDS011;44276;49.534;6.378;2022-11-13T01:02:02;15.15;;;8.68;;
53775;SDS011;44276;49.534;6.378;2022-11-13T01:04:30;17.80;;;8.70;;
53775;SDS011;44276;49.534;6.378;2022-11-13T01:06:59;21.90;;;8.18;;
53775;SDS011;44276;49.534;6.378;2022-11-13T01:09:27;17.35;;;9.35;;
53775;SDS011;44276;49.534;6.378;2022-11-13T01:11:57;12.52;;;7.35;;
53775;SDS011;44276;49.534;6.378;2022-11-13T01:14:25;23.30;;;8.88;;
53775;SDS011;44276;49.534;6.378;2022-11-13T01:16:53;15.60;;;7.82;;
53775;SDS011;44276;49.534;6.378;2022-11-13T01:19:22;18.38;;;8.45;;
53775;SDS011;44276;49.534;6.378;2022-11-13T01:21:50;22.52;;;7.50;;
53775;SDS011;44276;49.534;6.378;2022-11-13T01:24:18;12.20;;;8.13;;
53775;SDS011;44276;49.534;6.378;2022-11-13T01:26:51;16.98;;;7.72;;
53775;SDS011;44276;49.534;6.378;2022-11-13T01:29:21;15.65;;;7.63;;
53775;SDS011;44276;49.534;6.378;2022-11-13T01:31:50;13.43;;;6.43;;
53775;SDS011;44276;49.534;6.378;2022-11-13T01:34:19;12.35;;;7.10;;
53775;SDS011;44276;49.534;6.378;2022-11-13T01:36:47;13.75;;;6.85;;
53775;SDS011;44276;49.534;6.378;2022-11-13T01:39:16;11.45;;;6.95;;
53775;SDS011;44276;49.534;6.378;2022-11-13T01:41:44;18.90;;;7.25;;
53775;SDS011;44276;49.534;6.378;2022-11-13T01:44:14;14.23;;;7.20;;
53775;SDS011;44276;49.534;6.378;2022-11-13T01:46:46;11.60;;;5.70;;
53775;SDS011;44276;49.534;6.378;2022-11-13T01:49:24;15.55;;;6.57;;
53775;SDS011;44276;49.534;6.378;2022-11-13T01:51:59;13.10;;;7.07;;
53775;SDS011;44276;49.534;6.378;2022-11-13T01:54:33;13.65;;;6.65;;
53775;SDS011;44276;49.534;6.378;2022-11-13T01:57:09;13.20;;;6.18;;
53775;SDS011;44276;49.534;6.378;2022-11-13T01:59:39;12.05;;;5.53;;
53775;SDS011;44276;49.534;6.378;2022-11-13T02:02:14;11.73;;;6.35;;
53775;SDS011;44276;49.534;6.378;2022-11-13T02:04:43;12.10;;;6.32;;
53775;SDS011;44276;49.534;6.378;2022-11-13T02:07:13;13.35;;;5.85;;
53775;SDS011;44276;49.534;6.378;2022-11-13T02:09:45;12.38;;;6.63;;
53775;SDS011;44276;49.534;6.378;2022-11-13T02:12:18;9.85;;;5.28;;
53775;SDS011;44276;49.534;6.378;2022-11-13T02:14:58;10.15;;;5.00;;
53775;SDS011;44276;49.534;6.378;2022-11-13T02:17:31;9.88;;;5.05;;
53775;SDS011;44276;49.534;6.378;2022-11-13T02:20:07;9.80;;;5.68;;
53775;SDS011;44276;49.534;6.378;2022-11-13T02:22:37;7.35;;;4.85;;
53775;SDS011;44276;49.534;6.378;2022-11-13T02:25:17;10.32;;;5.50;;
53775;SDS011;44276;49.534;6.378;2022-11-13T02:27:48;9.20;;;5.13;;
53775;SDS011;44276;49.534;6.378;2022-11-13T02:30:18;11.23;;;5.35;;
53775;SDS011;44276;49.534;6.378;2022-11-13T02:32:53;12.80;;;6.00;;
53775;SDS011;44276;49.534;6.378;2022-11-13T02:38:03;14.40;;;4.10;;
53775;SDS011;44276;49.534;6.378;2022-11-13T02:40:36;14.80;;;4.45;;
53775;SDS011;44276;49.534;6.378;2022-11-13T02:43:05;12.40;;;4.90;;
53775;SDS011;44276;49.534;6.378;2022-11-13T02:45:33;15.00;;;5.78;;
53775;SDS011;44276;49.534;6.378;2022-11-13T02:48:04;13.90;;;4.20;;
53775;SDS011;44276;49.534;6.378;2022-11-13T02:50:35;8.32;;;4.75;;
53775;SDS011;44276;49.534;6.378;2022-11-13T02:53:05;9.48;;;5.53;;
53775;SDS011;44276;49.534;6.378;2022-11-13T02:55:35;7.75;;;4.70;;
53775;SDS011;44276;49.534;6.378;2022-11-13T02:58:05;9.90;;;4.80;;
53775;SDS011;44276;49.534;6.378;2022-11-13T03:00:33;6.90;;;3.95;;
53775;SDS011;44276;49.534;6.378;2022-11-13T03:03:02;7.95;;;4.80;;
53775;SDS011;44276;49.534;6.378;2022-11-13T03:05:30;7.28;;;4.38;;
53775;SDS011;44276;49.534;6.378;2022-11-13T03:07:59;7.82;;;3.55;;
53775;SDS011;44276;49.534;6.378;2022-11-13T03:10:27;8.20;;;4.15;;
53775;SDS011;44276;49.534;6.378;2022-11-13T03:12:58;10.63;;;4.57;;
53775;SDS011;44276;49.534;6.378;2022-11-13T03:15:26;8.32;;;3.80;;
53775;SDS011;44276;49.534;6.378;2022-11-13T03:17:55;10.13;;;5.30;;
53775;SDS011;44276;49.534;6.378;2022-11-13T03:20:23;9.80;;;5.22;;
53775;SDS011;44276;49.534;6.378;2022-11-13T03:22:52;9.82;;;5.13;;
53775;SDS011;44276;49.534;6.378;2022-11-13T03:25:20;9.35;;;4.80;;
53775;SDS011;44276;49.534;6.378;2022-11-13T03:27:48;12.23;;;4.97;;
53775;SDS011;44276;49.534;6.378;2022-11-13T03:30:18;10.25;;;4.65;;
53775;SDS011;44276;49.534;6.378;2022-11-13T03:32:47;10.50;;;4.47;;
53775;SDS011;44276;49.534;6.378;2022-11-13T03:35:20;15.48;;;5.20;;
53775;SDS011;44276;49.534;6.378;2022-11-13T03:37:49;13.05;;;5.55;;
53775;SDS011;44276;49.534;6.378;2022-11-13T03:40:17;8.77;;;5.30;;
53775;SDS011;44276;49.534;6.378;2022-11-13T03:42:46;16.02;;;5.47;;
53775;SDS011;44276;49.534;6.378;2022-11-13T03:45:14;11.68;;;5.35;;
53775;SDS011;44276;49.534;6.378;2022-11-13T03:47:44;10.45;;;4.85;;
53775;SDS011;44276;49.534;6.378;2022-11-13T03:50:15;10.75;;;5.82;;
53775;SDS011;44276;49.534;6.378;2022-11-13T03:52:43;10.10;;;5.25;;
53775;SDS011;44276;49.534;6.378;2022-11-13T03:55:11;16.05;;;6.13;;
53775;SDS011;44276;49.534;6.378;2022-11-13T03:57:40;13.07;;;5.28;;
53775;SDS011;44276;49.534;6.378;2022-11-13T04:00:09;13.20;;;5.97;;
53775;SDS011;44276;49.534;6.378;2022-11-13T04:02:38;8.48;;;4.78;;
53775;SDS011;44276;49.534;6.378;2022-11-13T04:05:09;15.68;;;6.63;;
53775;SDS011;44276;49.534;6.378;2022-11-13T04:07:37;9.75;;;5.78;;
53775;SDS011;44276;49.534;6.378;2022-11-13T04:10:06;12.88;;;5.75;;
53775;SDS011;44276;49.534;6.378;2022-11-13T04:12:35;13.45;;;6.55;;
53775;SDS011;44276;49.534;6.378;2022-11-13T04:15:03;11.65;;;6.88;;
53775;SDS011;44276;49.534;6.378;2022-11-13T04:17:33;10.50;;;5.60;;
53775;SDS011;44276;49.534;6.378;2022-11-13T04:20:06;11.25;;;5.15;;
53775;SDS011;44276;49.534;6.378;2022-11-13T04:22:37;10.27;;;5.63;;
53775;SDS011;44276;49.534;6.378;2022-11-13T04:25:06;10.23;;;6.13;;
53775;SDS011;44276;49.534;6.378;2022-11-13T04:27:35;9.07;;;5.85;;
53775;SDS011;44276;49.534;6.378;2022-11-13T04:30:04;9.70;;;5.75;;
53775;SDS011;44276;49.534;6.378;2022-11-13T04:32:34;10.23;;;6.25;;
53775;SDS011;44276;49.534;6.378;2022-11-13T04:35:03;13.15;;;5.82;;
53775;SDS011;44276;49.534;6.378;2022-11-13T04:37:34;11.52;;;6.00;;
53775;SDS011;44276;49.534;6.378;2022-11-13T04:40:03;9.88;;;6.07;;
53775;SDS011;44276;49.534;6.378;2022-11-13T04:42:33;14.52;;;6.32;;
53775;SDS011;44276;49.534;6.378;2022-11-13T04:45:16;14.65;;;6.03;;
53775;SDS011;44276;49.534;6.378;2022-11-13T04:47:45;12.32;;;6.82;;
53775;SDS011;44276;49.534;6.378;2022-11-13T04:50:15;9.00;;;5.75;;
53775;SDS011;44276;49.534;6.378;2022-11-13T04:52:45;12.45;;;5.80;;
53775;SDS011;44276;49.534;6.378;2022-11-13T04:55:14;11.10;;;5.90;;
53775;SDS011;44276;49.534;6.378;2022-11-13T04:57:42;8.88;;;5.05;;
53775;SDS011;44276;49.534;6.378;2022-11-13T05:00:11;11.32;;;6.03;;
53775;SDS011;44276;49.534;6.378;2022-11-13T05:02:40;10.80;;;5.90;;
53775;SDS011;44276;49.534;6.378;2022-11-13T05:05:09;13.63;;;5.97;;
53775;SDS011;44276;49.534;6.378;2022-11-13T05:07:37;12.52;;;6.35;;
53775;SDS011;44276;49.534;6.378;2022-11-13T05:10:09;12.15;;;6.03;;
53775;SDS011;44276;49.534;6.378;2022-11-13T05:12:38;9.52;;;4.70;;
53775;SDS011;44276;49.534;6.378;2022-11-13T05:15:07;6.03;;;4.25;;
53775;SDS011;44276;49.534;6.378;2022-11-13T05:17:36;7.57;;;4.68;;
53775;SDS011;44276;49.534;6.378;2022-11-13T05:20:05;9.05;;;6.00;;
53775;SDS011;44276;49.534;6.378;2022-11-13T05:22:34;9.77;;;5.05;;
53775;SDS011;44276;49.534;6.378;2022-11-13T05:25:03;8.98;;;4.68;;
53775;SDS011;44276;49.534;6.378;2022-11-13T05:27:33;6.70;;;3.38;;
53775;SDS011;44276;49.534;6.378;2022-11-13T05:30:02;7.97;;;4.53;;
53775;SDS011;44276;49.534;6.378;2022-11-13T05:32:33;8.00;;;4.25;;
53775;SDS011;44276;49.534;6.378;2022-11-13T05:35:04;7.40;;;3.65;;
53775;SDS011;44276;49.534;6.378;2022-11-13T05:37:34;6.05;;;4.38;;
53775;SDS011;44276;49.534;6.378;2022-11-13T05:40:03;6.35;;;3.60;;
53775;SDS011;44276;49.534;6.378;2022-11-13T05:42:36;6.65;;;3.13;;
53775;SDS011;44276;49.534;6.378;2022-11-13T05:45:05;5.60;;;3.30;;
53775;SDS011;44276;49.534;6.378;2022-11-13T05:47:36;5.45;;;3.58;;
53775;SDS011;44276;49.534;6.378;2022-11-13T05:50:05;7.60;;;3.72;;
53775;SDS011;44276;49.534;6.378;2022-11-13T05:52:35;8.48;;;4.05;;
53775;SDS011;44276;49.534;6.378;2022-11-13T05:55:04;8.65;;;5.07;;
53775;SDS011;44276;49.534;6.378;2022-11-13T05:57:34;7.82;;;5.07;;
53775;SDS011;44276;49.534;6.378;2022-11-13T06:00:05;8.05;;;4.60;;
53775;SDS011;44276;49.534;6.378;2022-11-13T06:02:36;8.40;;;4.50;;
53775;SDS011;44276;49.534;6.378;2022-11-13T06:05:06;10.20;;;4.72;;
53775;SDS011;44276;49.534;6.378;2022-11-13T06:07:36;14.60;;;5.40;;
53775;SDS011;44276;49.534;6.378;2022-11-13T06:10:04;13.35;;;6.90;;
53775;SDS011;44276;49.534;6.378;2022-11-13T06:12:34;12.10;;;6.53;;
53775;SDS011;44276;49.534;6.378;2022-11-13T06:15:04;13.80;;;7.47;;
53775;SDS011;44276;49.534;6.378;2022-11-13T06:17:34;20.42;;;7.30;;
53775;SDS011;44276;49.534;6.378;2022-11-13T06:20:03;14.73;;;7.93;;
53775;SDS011;44276;49.534;6.378;2022-11-13T06:22:33;17.42;;;8.00;;
53775;SDS011;44276;49.534;6.378;2022-11-13T06:25:02;16.85;;;7.60;;
53775;SDS011;44276;49.534;6.378;2022-11-13T06:27:31;13.85;;;7.07;;
53775;SDS011;44276;49.534;6.378;2022-11-13T06:30:01;17.40;;;7.95;;
53775;SDS011;44276;49.534;6.378;2022-11-13T06:32:30;17.00;;;7.20;;
53775;SDS011;44276;49.534;6.378;2022-11-13T06:34:59;15.70;;;8.20;;
53775;SDS011;44276;49.534;6.378;2022-11-13T06:37:27;14.43;;;8.25;;
53775;SDS011;44276;49.534;6.378;2022-11-13T06:40:00;14.90;;;7.65;;
53775;SDS011;44276;49.534;6.378;2022-11-13T06:42:28;14.32;;;8.75;;
53775;SDS011;44276;49.534;6.378;2022-11-13T06:44:57;17.80;;;7.93;;
53775;SDS011;44276;49.534;6.378;2022-11-13T06:47:29;16.48;;;7.97;;
53775;SDS011;44276;49.534;6.378;2022-11-13T06:49:57;15.05;;;7.78;;
53775;SDS011;44276;49.534;6.378;2022-11-13T06:52:26;14.73;;;8.57;;
53775;SDS011;44276;49.534;6.378;2022-11-13T06:54:56;17.70;;;8.95;;
53775;SDS011;44276;49.534;6.378;2022-11-13T06:57:25;21.15;;;9.18;;
53775;SDS011;44276;49.534;6.378;2022-11-13T06:59:54;19.63;;;7.60;;
53775;SDS011;44276;49.534;6.378;2022-11-13T07:02:24;21.63;;;10.70;;
53775;SDS011;44276;49.534;6.378;2022-11-13T07:04:53;17.13;;;7.82;;
53775;SDS011;44276;49.534;6.378;2022-11-13T07:07:21;13.05;;;7.57;;
53775;SDS011;44276;49.534;6.378;2022-11-13T07:09:50;26.65;;;6.60;;
53775;SDS011;44276;49.534;6.378;2022-11-13T07:12:18;14.30;;;7.22;;
53775;SDS011;44276;49.534;6.378;2022-11-13T07:14:47;16.80;;;8.88;;
53775;SDS011;44276;49.534;6.378;2022-11-13T07:17:15;18.08;;;8.80;;
53775;SDS011;44276;49.534;6.378;2022-11-13T07:19:44;22.60;;;11.40;;
53775;SDS011;44276;49.534;6.378;2022-11-13T07:22:12;18.00;;;9.30;;
53775;SDS011;44276;49.534;6.378;2022-11-13T07:24:40;16.35;;;8.98;;
53775;SDS011;44276;49.534;6.378;2022-11-13T07:27:08;17.67;;;7.80;;
53775;SDS011;44276;49.534;6.378;2022-11-13T07:29:37;14.40;;;8.02;;
53775;SDS011;44276;49.534;6.378;2022-11-13T07:32:05;14.77;;;6.82;;
53775;SDS011;44276;49.534;6.378;2022-11-13T07:34:33;13.13;;;6.50;;
53775;SDS011;44276;49.534;6.378;2022-11-13T07:37:02;13.10;;;6.60;;
53775;SDS011;44276;49.534;6.378;2022-11-13T07:39:31;13.20;;;6.38;;
53775;SDS011;44276;49.534;6.378;2022-11-13T07:41:59;14.95;;;6.40;;
53775;SDS011;44276;49.534;6.378;2022-11-13T07:44:27;10.90;;;6.78;;
53775;SDS011;44276;49.534;6.378;2022-11-13T07:47:18;11.35;;;6.10;;
53775;SDS011;44276;49.534;6.378;2022-11-13T07:49:46;16.33;;;8.40;;
53775;SDS011;44276;49.534;6.378;2022-11-13T07:52:15;11.10;;;6.13;;
53775;SDS011;44276;49.534;6.378;2022-11-13T07:54:43;16.23;;;6.78;;
53775;SDS011;44276;49.534;6.378;2022-11-13T07:57:12;10.10;;;6.68;;
53775;SDS011;44276;49.534;6.378;2022-11-13T07:59:40;6.97;;;4.68;;
53775;SDS011;44276;49.534;6.378;2022-11-13T08:02:09;7.05;;;3.88;;
53775;SDS011;44276;49.534;6.378;2022-11-13T08:04:42;7.35;;;3.60;;
53775;SDS011;44276;49.534;6.378;2022-11-13T08:07:10;6.60;;;4.07;;
53775;SDS011;44276;49.534;6.378;2022-11-13T08:09:40;6.35;;;4.30;;
53775;SDS011;44276;49.534;6.378;2022-11-13T08:12:08;6.50;;;3.83;;
53775;SDS011;44276;49.534;6.378;2022-11-13T08:14:36;7.65;;;4.22;;
53775;SDS011;44276;49.534;6.378;2022-11-13T08:17:04;9.65;;;6.15;;
53775;SDS011;44276;49.534;6.378;2022-11-13T08:19:32;6.55;;;4.55;;
53775;SDS011;44276;49.534;6.378;2022-11-13T08:22:00;8.25;;;4.40;;
53775;SDS011;44276;49.534;6.378;2022-11-13T08:24:28;8.45;;;4.53;;
53775;SDS011;44276;49.534;6.378;2022-11-13T08:26:57;5.55;;;3.90;;
53775;SDS011;44276;49.534;6.378;2022-11-13T08:29:25;6.97;;;3.75;;
53775;SDS011;44276;49.534;6.378;2022-11-13T08:31:53;5.57;;;3.15;;
53775;SDS011;44276;49.534;6.378;2022-11-13T08:34:21;6.53;;;3.67;;
53775;SDS011;44276;49.534;6.378;2022-11-13T08:36:50;5.78;;;3.88;;
53775;SDS011;44276;49.534;6.378;2022-11-13T08:39:18;4.72;;;3.78;;
53775;SDS011;44276;49.534;6.378;2022-11-13T08:41:46;7.13;;;5.30;;
53775;SDS011;44276;49.534;6.378;2022-11-13T08:44:15;5.15;;;3.20;;
53775;SDS011;44276;49.534;6.378;2022-11-13T08:46:43;4.95;;;3.50;;
53775;SDS011;44276;49.534;6.378;2022-11-13T08:49:11;5.57;;;3.42;;
53775;SDS011;44276;49.534;6.378;2022-11-13T08:51:40;5.70;;;3.80;;
53775;SDS011;44276;49.534;6.378;2022-11-13T08:54:08;4.78;;;3.10;;
53775;SDS011;44276;49.534;6.378;2022-11-13T08:56:36;5.97;;;3.45;;
53775;SDS011;44276;49.534;6.378;2022-11-13T08:59:04;4.38;;;3.15;;
53775;SDS011;44276;49.534;6.378;2022-11-13T09:01:33;4.50;;;3.15;;
53775;SDS011;44276;49.534;6.378;2022-11-13T09:04:01;4.43;;;2.95;;
53775;SDS011;44276;49.534;6.378;2022-11-13T09:06:30;5.25;;;3.78;;
53775;SDS011;44276;49.534;6.378;2022-11-13T09:09:00;4.82;;;3.50;;
53775;SDS011;44276;49.534;6.378;2022-11-13T09:11:28;4.93;;;3.60;;
53775;SDS011;44276;49.534;6.378;2022-11-13T09:13:56;4.68;;;3.05;;
53775;SDS011;44276;49.534;6.378;2022-11-13T09:16:24;8.35;;;5.07;;
53775;SDS011;44276;49.534;6.378;2022-11-13T09:18:54;6.35;;;4.00;;
53775;SDS011;44276;49.534;6.378;2022-11-13T09:21:22;5.85;;;4.53;;
53775;SDS011;44276;49.534;6.378;2022-11-13T09:23:51;6.15;;;4.70;;
53775;SDS011;44276;49.534;6.378;2022-11-13T09:26:19;8.93;;;5.20;;
53775;SDS011;44276;49.534;6.378;2022-11-13T09:28:47;7.57;;;4.65;;
53775;SDS011;44276;49.534;6.378;2022-11-13T09:31:16;7.25;;;4.70;;
53775;SDS011;44276;49.534;6.378;2022-11-13T09:33:44;9.02;;;4.72;;
53775;SDS011;44276;49.534;6.378;2022-11-13T09:36:14;7.90;;;4.63;;
53775;SDS011;44276;49.534;6.378;2022-11-13T09:38:43;8.75;;;6.28;;
53775;SDS011;44276;49.534;6.378;2022-11-13T09:41:12;6.57;;;4.15;;
53775;SDS011;44276;49.534;6.378;2022-11-13T09:43:45;5.97;;;4.63;;
53775;SDS011;44276;49.534;6.378;2022-11-13T09:46:28;6.35;;;4.57;;
53775;SDS011;44276;49.534;6.378;2022-11-13T09:49:10;5.45;;;4.22;;
53775;SDS011;44276;49.534;6.378;2022-11-13T09:51:45;5.55;;;4.03;;
53775;SDS011;44276;49.534;6.378;2022-11-13T09:54:19;5.43;;;3.85;;
53775;SDS011;44276;49.534;6.378;2022-11-13T09:56:50;6.25;;;4.35;;
53775;SDS011;44276;49.534;6.378;2022-11-13T09:59:28;6.18;;;4.88;;
53775;SDS011;44276;49.534;6.378;2022-11-13T10:02:09;4.70;;;4.10;;
53775;SDS011;44276;49.534;6.378;2022-11-13T10:04:51;5.88;;;4.07;;
53775;SDS011;44276;49.534;6.378;2022-11-13T10:07:34;6.55;;;4.28;;
53775;SDS011;44276;49.534;6.378;2022-11-13T10:10:20;6.45;;;4.80;;
53775;SDS011;44276;49.534;6.378;2022-11-13T10:13:17;6.75;;;5.10;;
53775;SDS011;44276;49.534;6.378;2022-11-13T10:15:51;6.47;;;4.55;;
53775;SDS011;44276;49.534;6.378;2022-11-13T10:18:47;4.95;;;4.15;;
53775;SDS011;44276;49.534;6.378;2022-11-13T10:21:19;7.82;;;4.18;;
53775;SDS011;44276;49.534;6.378;2022-11-13T10:24:02;4.28;;;3.35;;
53775;SDS011;44276;49.534;6.378;2022-11-13T10:26:42;5.70;;;4.30;;
53775;SDS011;44276;49.534;6.378;2022-11-13T10:29:11;5.60;;;4.45;;
53775;SDS011;44276;49.534;6.378;2022-11-13T10:31:43;6.85;;;4.47;;
53775;SDS011;44276;49.534;6.378;2022-11-13T10:34:14;5.47;;;4.25;;
53775;SDS011;44276;49.534;6.378;2022-11-13T10:36:48;8.90;;;4.38;;
53775;SDS011;44276;49.534;6.378;2022-11-13T10:39:31;5.88;;;3.22;;
53775;SDS011;44276;49.534;6.378;2022-11-13T10:42:20;4.90;;;4.07;;
53775;SDS011;44276;49.534;6.378;2022-11-13T10:45:04;5.32;;;3.85;;
53775;SDS011;44276;49.534;6.378;2022-11-13T10:47:45;5.80;;;3.85;;
53775;SDS011;44276;49.534;6.378;2022-11-13T10:50:35;5.97;;;4.78;;
53775;SDS011;44276;49.534;6.378;2022-11-13T10:53:25;4.70;;;3.47;;
53775;SDS011;44276;49.534;6.378;2022-11-13T10:56:12;4.68;;;3.65;;
53775;SDS011;44276;49.534;6.378;2022-11-13T10:59:01;3.30;;;2.88;;
53775;SDS011;44276;49.534;6.378;2022-11-13T11:01:38;3.40;;;3.10;;
53775;SDS011;44276;49.534;6.378;2022-11-13T11:04:11;5.88;;;3.92;;
53775;SDS011;44276;49.534;6.378;2022-11-13T11:06:47;4.78;;;3.65;;
53775;SDS011;44276;49.534;6.378;2022-11-13T11:09:36;3.65;;;2.97;;
53775;SDS011;44276;49.534;6.378;2022-11-13T11:12:10;4.05;;;3.45;;
53775;SDS011;44276;49.534;6.378;2022-11-13T11:15:02;4.50;;;3.28;;
53775;SDS011;44276;49.534;6.378;2022-11-13T11:17:47;3.42;;;2.90;;
53775;SDS011;44276;49.534;6.378;2022-11-13T11:20:20;4.00;;;3.33;;
53775;SDS011;44276;49.534;6.378;2022-11-13T11:23:00;3.80;;;2.95;;
53775;SDS011;44276;49.534;6.378;2022-11-13T11:25:41;4.22;;;3.40;;
53775;SDS011;44276;49.534;6.378;2022-11-13T11:28:27;3.47;;;3.15;;
53775;SDS011;44276;49.534;6.378;2022-11-13T11:31:08;4.13;;;3.05;;
53775;SDS011;44276;49.534;6.378;2022-11-13T11:33:47;3.45;;;2.95;;
53775;SDS011;44276;49.534;6.378;2022-11-13T11:36:22;4.55;;;3.13;;
53775;SDS011;44276;49.534;6.378;2022-11-13T11:38:59;7.50;;;3.03;;
53775;SDS011;44276;49.534;6.378;2022-11-13T11:41:49;4.40;;;2.95;;
53775;SDS011;44276;49.534;6.378;2022-11-13T11:44:30;3.35;;;2.88;;
53775;SDS011;44276;49.534;6.378;2022-11-13T11:47:07;8.48;;;5.82;;
53775;SDS011;44276;49.534;6.378;2022-11-13T11:49:44;5.50;;;3.47;;
53775;SDS011;44276;49.534;6.378;2022-11-13T11:52:17;4.10;;;3.00;;
53775;SDS011;44276;49.534;6.378;2022-11-13T11:55:30;2.83;;;2.20;;
53775;SDS011;44276;49.534;6.378;2022-11-13T11:58:18;3.28;;;2.35;;
53775;SDS011;44276;49.534;6.378;2022-11-13T12:01:09;31.27;;;3.40;;
53775;SDS011;44276;49.534;6.378;2022-11-13T12:03:55;2.83;;;2.10;;
53775;SDS011;44276;49.534;6.378;2022-11-13T12:06:50;3.90;;;1.90;;
53775;SDS011;44276;49.534;6.378;2022-11-13T12:09:32;3.40;;;2.22;;
53775;SDS011;44276;49.534;6.378;2022-11-13T12:12:08;4.18;;;2.45;;
53775;SDS011;44276;49.534;6.378;2022-11-13T12:14:50;2.90;;;2.50;;
53775;SDS011;44276;49.534;6.378;2022-11-13T12:17:37;3.75;;;2.55;;
53775;SDS011;44276;49.534;6.378;2022-11-13T12:20:21;3.65;;;2.55;;
53775;SDS011;44276;49.534;6.378;2022-11-13T12:23:02;2.70;;;2.15;;
53775;SDS011;44276;49.534;6.378;2022-11-13T12:25:48;4.10;;;2.40;;
53775;SDS011;44276;49.534;6.378;2022-11-13T12:28:27;3.67;;;1.95;;
53775;SDS011;44276;49.534;6.378;2022-11-13T12:31:09;3.10;;;2.40;;
53775;SDS011;44276;49.534;6.378;2022-11-13T12:33:57;4.85;;;3.30;;
53775;SDS011;44276;49.534;6.378;2022-11-13T12:36:39;3.67;;;2.28;;
53775;SDS011;44276;49.534;6.378;2022-11-13T12:39:12;2.35;;;1.83;;
53775;SDS011;44276;49.534;6.378;2022-11-13T12:41:58;2.50;;;1.60;;
53775;SDS011;44276;49.534;6.378;2022-11-13T12:44:38;5.60;;;2.15;;
53775;SDS011;44276;49.534;6.378;2022-11-13T12:47:18;2.55;;;2.10;;
53775;SDS011;44276;49.534;6.378;2022-11-13T12:49:58;3.40;;;2.30;;
53775;SDS011;44276;49.534;6.378;2022-11-13T12:52:28;3.97;;;2.42;;
53775;SDS011;44276;49.534;6.378;2022-11-13T12:55:03;3.92;;;2.60;;
53775;SDS011;44276;49.534;6.378;2022-11-13T12:57:45;2.38;;;2.13;;
53775;SDS011;44276;49.534;6.378;2022-11-13T13:00:23;3.00;;;2.28;;
53775;SDS011;44276;49.534;6.378;2022-11-13T13:03:03;2.13;;;1.70;;
53775;SDS011;44276;49.534;6.378;2022-11-13T13:06:03;2.45;;;2.08;;
53775;SDS011;44276;49.534;6.378;2022-11-13T13:08:54;4.45;;;2.70;;
53775;SDS011;44276;49.534;6.378;2022-11-13T13:11:48;3.78;;;1.98;;
53775;SDS011;44276;49.534;6.378;2022-11-13T13:14:34;3.90;;;1.95;;
53775;SDS011;44276;49.534;6.378;2022-11-13T13:17:22;5.07;;;2.75;;
53775;SDS011;44276;49.534;6.378;2022-11-13T13:19:56;6.25;;;3.53;;
53775;SDS011;44276;49.534;6.378;2022-11-13T13:22:28;5.15;;;3.65;;
53775;SDS011;44276;49.534;6.378;2022-11-13T13:25:00;2.80;;;2.08;;
53775;SDS011;44276;49.534;6.378;2022-11-13T13:27:38;8.57;;;4.78;;
53775;SDS011;44276;49.534;6.378;2022-11-13T13:30:17;8.60;;;5.03;;
53775;SDS011;44276;49.534;6.378;2022-11-13T13:32:52;8.48;;;4.90;;
53775;SDS011;44276;49.534;6.378;2022-11-13T13:35:42;4.30;;;2.03;;
53775;SDS011;44276;49.534;6.378;2022-11-13T13:38:23;4.25;;;2.65;;
53775;SDS011;44276;49.534;6.378;2022-11-13T13:41:09;3.10;;;2.20;;
53775;SDS011;44276;49.534;6.378;2022-11-13T13:43:50;6.18;;;3.90;;
53775;SDS011;44276;49.534;6.378;2022-11-13T13:46:34;3.97;;;2.67;;
53775;SDS011;44276;49.534;6.378;2022-11-13T13:49:03;8.85;;;5.00;;
53775;SDS011;44276;49.534;6.378;2022-11-13T13:51:41;3.60;;;2.65;;
53775;SDS011;44276;49.534;6.378;2022-11-13T13:54:15;5.13;;;3.60;;
53775;SDS011;44276;49.534;6.378;2022-11-13T13:56:50;9.20;;;6.38;;
53775;SDS011;44276;49.534;6.378;2022-11-13T13:59:32;5.68;;;4.28;;
53775;SDS011;44276;49.534;6.378;2022-11-13T14:02:12;3.80;;;2.17;;
53775;SDS011;44276;49.534;6.378;2022-11-13T14:04:44;1.50;;;1.23;;
53775;SDS011;44276;49.534;6.378;2022-11-13T14:07:21;2.03;;;1.45;;
53775;SDS011;44276;49.534;6.378;2022-11-13T14:10:07;4.38;;;1.88;;
53775;SDS011;44276;49.534;6.378;2022-11-13T14:12:45;1.75;;;1.20;;
53775;SDS011;44276;49.534;6.378;2022-11-13T14:15:17;3.75;;;1.92;;
53775;SDS011;44276;49.534;6.378;2022-11-13T14:17:51;2.92;;;1.52;;
53775;SDS011;44276;49.534;6.378;2022-11-13T14:20:34;2.28;;;1.33;;
53775;SDS011;44276;49.534;6.378;2022-11-13T14:23:13;2.90;;;1.85;;
53775;SDS011;44276;49.534;6.378;2022-11-13T14:25:48;3.75;;;1.38;;
53775;SDS011;44276;49.534;6.378;2022-11-13T14:28:18;1.75;;;1.40;;
53775;SDS011;44276;49.534;6.378;2022-11-13T14:30:53;2.38;;;1.00;;
53775;SDS011;44276;49.534;6.378;2022-11-13T14:33:26;1.98;;;1.52;;
53775;SDS011;44276;49.534;6.378;2022-11-13T14:36:00;2.60;;;1.50;;
53775;SDS011;44276;49.534;6.378;2022-11-13T14:38:30;2.05;;;1.30;;
53775;SDS011;44276;49.534;6.378;2022-11-13T14:41:04;3.10;;;1.55;;
53775;SDS011;44276;49.534;6.378;2022-11-13T14:43:33;4.70;;;1.65;;
53775;SDS011;44276;49.534;6.378;2022-11-13T14:46:02;7.90;;;4.72;;
53775;SDS011;44276;49.534;6.378;2022-11-13T14:48:53;4.13;;;2.10;;
53775;SDS011;44276;49.534;6.378;2022-11-13T14:51:23;4.75;;;2.72;;
53775;SDS011;44276;49.534;6.378;2022-11-13T14:53:57;2.83;;;1.90;;
53775;SDS011;44276;49.534;6.378;2022-11-13T14:56:36;3.53;;;2.78;;
53775;SDS011;44276;49.534;6.378;2022-11-13T14:59:07;5.90;;;2.47;;
53775;SDS011;44276;49.534;6.378;2022-11-13T15:01:52;2.95;;;1.85;;
53775;SDS011;44276;49.534;6.378;2022-11-13T15:04:21;3.43;;;1.90;;
53775;SDS011;44276;49.534;6.378;2022-11-13T15:06:50;2.45;;;1.83;;
53775;SDS011;44276;49.534;6.378;2022-11-13T15:09:22;6.10;;;3.85;;
53775;SDS011;44276;49.534;6.378;2022-11-13T15:11:53;11.02;;;6.93;;
53775;SDS011;44276;49.534;6.378;2022-11-13T15:14:21;5.18;;;3.20;;
53775;SDS011;44276;49.534;6.378;2022-11-13T15:16:50;3.58;;;2.72;;
53775;SDS011;44276;49.534;6.378;2022-11-13T15:19:23;3.35;;;2.30;;
53775;SDS011;44276;49.534;6.378;2022-11-13T15:21:59;3.15;;;2.03;;